x

Great Slave Lake, North Arm (45150) Wave Buoy

5:00am - Sun 21st Sep 2014 All times are UTC.

  • Sig Wave height 2.0ft
  • Peak Period 14s
  • Wind
    16mph, 18mph gusts
  • Sea Temp 47°f
  • Air Temp 48°f
  • Sea Pressure 1006.3mb

More Historic Weather Station data

Upgrade to MSW Pro to gain access to the past 30 days of data for over 8000 Wavebouys and Weather Stations around the globe.

Join Pro

Comparision Forecast

View Surf forecast
   
Sun 09/21 5:00am 2ft 14s 16 18 mph 1006.3mb 47f 48f
4:00am 1.3ft 14s 16 18 mph 1007.4mb 47f 47f
3:00am 0.7ft 2s 13 16 mph 1008mb 47f 47f
2:00am 0.7ft 2s 11 13 mph 1009mb 47f 47f
1:00am 0.3ft 2s 9 11 mph 1010mb 47f 47f
12:00am 0.3ft 2s 7 9 mph 1010.3mb 47f 47f
Sat 09/20 11:00pm 0.3ft 3s 7 9 mph 1010.5mb 47f 47f
10:00pm 0.3ft 2s 7 9 mph 1010.7mb 47f 47f
9:00pm 0.3ft 2s 4 7 mph 1010.8mb 47f 47f
8:00pm 0.3ft 2s 7
mph
1010.8mb 47f 47f
7:00pm 0.3ft 2s 4
mph
1010.5mb 47f 47f
6:00pm 0.3ft 2s 7
mph
1010.4mb 47f 47f
5:00pm 0.3ft 4s 4 7 mph 1009.9mb 47f 47f
4:00pm  -   -  4
mph
1009.3mb 47f 46f
3:00pm  -   -  2
mph
- - -
6:00am 1ft 14s 9 11 mph 1001.3mb 47f 46f
5:00am 1.3ft 14s 9
mph
1000.5mb 47f 46f
4:00am 1.3ft 3s 11 13 mph 999.8mb 47f 46f
3:00am 1.6ft 14s 11 13 mph 999.2mb 47f 46f
2:00am 1.6ft 4s 13 16 mph 998.6mb 47f 47f
1:00am 2ft 13s 13 16 mph 998.1mb 47f 47f
12:00am 2ft 4s 13 16 mph 997.8mb 47f 47f
Fri 09/19 11:00pm 2.5ft 4s 13 16 mph 997.5mb 47f 47f
10:00pm 3.5ft 4s 18 22 mph 997mb 47f 47f
9:00pm 3.5ft 4s 22 25 mph 997mb 47f 46f
8:00pm 4ft 4s 20 22 mph 997.4mb 47f 46f
7:00pm 4.5ft 5s 22 27 mph 997.6mb 47f 46f
6:00pm 4ft 5s 22 29 mph 998mb 47f 45f
5:00pm 4.5ft 5s 22 27 mph 998mb 47f 45f
4:00pm 4ft 5s 25 29 mph 998.2mb 47f 45f
3:00pm 3.5ft 4s 22 27 mph 998.6mb 47f 45f
2:00pm  -   -  22
mph
998.8mb - 45f
7:00am 1.6ft 13s 16 18 mph 1000.4mb 47f 46f
6:00am 1.3ft 14s 13 16 mph 1000.8mb 47f 46f
5:00am 1ft 2s 13 16 mph 1000.7mb 47f 46f
4:00am 0.7ft 2s 11 13 mph 1000.8mb 47f 46f
3:00am 0.3ft 2s 9 11 mph 1000.8mb 47f 47f
2:00am 0.3ft 3s 9 11 mph 1000.6mb 47f 47f
1:00am  -  2s 7 9 mph 1000.8mb 47f 47f
12:00am 0.3ft 3s 4 7 mph 1000.8mb 47f 47f
Thu 09/18 11:00pm 0.3ft 2s 2
mph
1000.9mb 47f 47f
10:00pm 0.7ft 3s 7 9 mph 1000.7mb 47f 47f
9:00pm 1ft 14s 7
mph
1000.9mb 47f 47f
8:00pm 0.7ft 3s 9
mph
1000.9mb 47f 47f
7:00pm 0.7ft 3s 9 11 mph 1000.7mb 47f 47f
6:00pm 0.7ft 3s 7 9 mph 1000.6mb 47f 47f
5:00pm 0.7ft 14s 7 9 mph 1000.2mb 47f 47f
4:00pm 0.7ft 14s 4 7 mph 999.9mb 47f 47f
3:00pm 0.7ft 14s 4 9 mph 999.6mb 47f 47f
2:00pm 0.7ft 14s 4 7 mph 999.4mb 47f 47f
1:00pm 0.7ft 2s 4 7 mph 999.2mb 47f 47f
12:00pm 0.7ft 2s 9 11 mph 999mb 47f 47f
11:00am 0.7ft 3s 9 11 mph 998.8mb 47f 47f
10:00am 0.7ft 3s 4 7 mph 998.6mb 47f 47f
9:00am 0.7ft 4s 2 4 mph 998.5mb 47f 46f
8:00am 0.7ft 3s 4
mph
998.6mb 47f 47f
7:00am 1ft 4s 2 4 mph 998.5mb 47f 46f
6:00am 1ft 4s 2 4 mph 998.4mb 47f 47f
5:00am 1.3ft 4s 2
mph
998.5mb 47f 47f
4:00am 1.3ft 4s 7 9 mph 998.5mb 47f 47f
3:00am 1.6ft 4s 4 7 mph 999.2mb 47f 47f
2:00am 1.6ft 5s 7 9 mph 999.4mb 46f 47f
1:00am 2ft 5s 4 7 mph 999.8mb 46f 47f
12:00am 2.5ft 5s 7 9 mph - 46f 47f
Wed 09/17 11:00pm 2.5ft 5s 4
mph
1000.7mb 46f 47f
10:00pm 3ft 5s 7
mph
1001.2mb 46f 47f
9:00pm 3ft 5s 7 9 mph 1001.7mb 46f 46f
8:00pm 3.5ft 5s 9 11 mph 1002.4mb 46f 46f
6:00pm 4.5ft 5s 18 20 mph 1003.5mb 46f 45f
5:00pm 4.5ft 5s 18 22 mph 1003.9mb 46f 45f
3:00pm 5ft 5s 22 25 mph 1005.8mb 46f 44f
2:00pm 5ft 6s 20 25 mph 1006.9mb 46f 44f
1:00pm 5ft 5s 22 27 mph 1007.2mb 46f 44f
12:00pm 5.5ft 5s 22 27 mph 1008.4mb 46f 44f
11:00am 5ft 5s 22 27 mph 1009.1mb 46f 44f
10:00am 5ft 5s 22 27 mph 1010.1mb 46f 45f
9:00am 4ft 5s 25 29 mph 1011.2mb 46f 45f